Brazoria County Airport Angleton, Lake Jackson US
ICAO: KLBX
IATA: LBX
Category: Medium
Scheduled Services: No

Elevation: 25 ft
TransAlt. 18000 ft.

Airport Communications:
HOUSTON APP/DEP:134.45
ASOS:119.925
CLNC DEL:125.2
CTAF/UNICOM:123

KLBX Zoom In..

If Map Doesn't Load, Click Here

Runways:

(A) RW 17 length 7000 ft width 100 ft
ILS 109.10 / hdg 175

(B) RW 35 length 7000 ft width 100 ft
---- / hdg 355

Location; KLBX
Day. 21 / Time. 16.04 Zulu
* Altimeter: 29.97
* Temperature: 28° c. 82.4°f.
* Wind from: 040° Speed 03 kn.
Dewpoint: 27° c.
Visibility: 10 Statute Miles.
Clouds: Few 2100 ft.
Clouds: Few 3900 ft.

KLBX 211604Z AUTO 04003KT 10SM FEW021 FEW039 28/27 A2997 RMK AO2 T02780267


Wind From 040°
Speed 03 kn.

 
 
jpsmedia.com for Web Design worldairports.se 2018   terms of use